Información del aeropuerto LEAM

Información de pista
Pista 08 Longitud 10499 ft Anchura 148 ft
Elevación 26 ft Umbral 492 ft Rumbo 73
Pista 26 Longitud 10499 ft Anchura 148 ft
Elevación 70 ft Umbral 0 ft Rumbo 253
Frecuencias del aeropuerto
Tipo APP Nombre APP Frecuencia 118.35 MHZ
Tipo GND Nombre GND Frecuencia 121.7 MHZ
Tipo TWR Nombre TWR Frecuencia 118.35 MHZ
Radioayudas del aeropuerto
Tipo NDB Nombre Almeria Frecuencia 284 KHZ
Tipo NDB Nombre Almeria Frecuencia 310 KHZ
Tipo VOR-DME Nombre Almeria Frecuencia 114100 KHZ
Información meteorológica del aeropuerto y NOTAM
ADDS - METARS form results

(1045 UTC 03 March 2021)
Data provider http://aviationweather.gov/metar/data/
 
METAR text: LEAM 031030Z 05011KT 020V080 9999 BKN040 17/09 Q1027
Conditions at: LEAM (ALMERIA AIRPORT , ES) observed 1030 UTC 03 March 2021
Temperature: 17.0°C (63°F)
Dewpoint: 9.0°C (48°F) [RH = 59%]
Pressure (altimeter): 30.32 inches Hg (1027.0 mb)
Winds: from the NE (50 degrees) at 13 MPH (11 knots; 5.7 m/s)
Visibility: 6 or more miles (10+ km)
Ceiling: 4000 feet AGL
Clouds: broken clouds at 4000 feet AGL
Weather: no significant weather observed at this time

METAR text: LEAM 031000Z 05012KT 020V080 9999 BKN035 16/09 Q1027
Conditions at: LEAM (ALMERIA AIRPORT , ES) observed 1000 UTC 03 March 2021
Temperature: 16.0°C (61°F)
Dewpoint: 9.0°C (48°F) [RH = 63%]
Pressure (altimeter): 30.32 inches Hg (1027.0 mb)
Winds: from the NE (50 degrees) at 14 MPH (12 knots; 6.2 m/s)
Visibility: 6 or more miles (10+ km)
Ceiling: 3500 feet AGL
Clouds: broken clouds at 3500 feet AGL
Weather: no significant weather observed at this time

Forecast for: LEAM (ALMERIA AIRPORT , ES)
Text: TAF LEAM 030800Z 0309/0409 06012KT 9999 FEW035 TX20/0315Z TN11/0406Z
Forecast period: 0900 to 2300 UTC 03 March 2021
Forecast type: FROM: standard forecast or significant change
Winds: from the ENE (60 degrees) at 14 MPH (12 knots; 6.2 m/s)
Visibility: 6 or more miles (10+ km)
Ceiling: at least 12,000 feet AGL
Clouds: few clouds at 3500 feet AGL
Weather: no significant weather forecast for this period
Text: PROB40
Forecast period: 1100 to 1700 UTC 03 March 2021
Forecast type: TEMPORARY: The following changes expected for less than half the time period
Winds: from the ENE (70 degrees) at 18 MPH (16 knots; 8.2 m/s)
gusting to 30 MPH (26 knots; 13.4 m/s)
Visibility: missing
Ceiling: unknown
Clouds: missing
Weather: no significant weather forecast for this period
Text: TEMPO 0311/0317 07016G26KT
Forecast period: 2300 UTC 03 March 2021 to 0900 UTC 04 March 2021
Forecast type: BECOMING: Conditions expected to become as follows by 0100 UTC 04 March 2021
Winds: from the N (360 degrees) at 9 MPH (8 knots; 4.1 m/s)
Visibility: 6 or more miles (10+ km)
Ceiling: at least 12,000 feet AGL
Clouds: few clouds at 3500 feet AGL
Weather: no significant weather forecast for this period